Knjazevac, Serbia
Current Conditions -  °F | °C
As of 6:00 AM on Monday 22 Dec 2014 (Local Time) from LYNI Reporting Station
Clear Clear  
Wind Chill: 32°   Ceiling: Unl
Heat Index: 32°   Visibility: 6mi
Dew Point: 28°   Wind: 3mph
Humidity: 87%   Direction: 100°E
Pressure: 30.45"   Gusts: NA
Location:  43.57°N, 22.26°E
Report Text: LYNI 220400Z 10003KT CAVOK M00/M02 Q1031
Loading
Personal Weather Stations






























Interactive Weather Map New forecast layout! Learn more

10-Day Weather Forecast

Advertisements
Track Severe Weather on mobile